createdAt,value
2023-04-01T00:01:00.409Z,7.3091
2023-04-01T00:02:02.355Z,7.2928
2023-04-01T00:03:04.411Z,7.2775
2023-04-01T00:04:06.444Z,7.2847
2023-04-01T00:05:08.429Z,7.2803
2023-04-01T00:06:10.557Z,7.2662
2023-04-01T00:07:12.523Z,7.2738
2023-04-01T00:08:14.459Z,7.2769
2023-04-01T00:09:16.663Z,7.2687
2023-04-01T00:10:18.732Z,7.2831
2023-04-01T00:11:20.848Z,7.3470
2023-04-01T00:12:22.774Z,7.2969
2023-04-01T00:13:24.692Z,7.2941
2023-04-01T00:14:26.629Z,7.3037
2023-04-01T00:15:28.566Z,7.2895
2023-04-01T00:16:30.536Z,7.2687
2023-04-01T00:17:32.488Z,7.2712
2023-04-01T00:18:34.446Z,7.2736
2023-04-01T00:19:36.370Z,7.2471
2023-04-01T00:20:38.310Z,7.2485
2023-04-01T00:21:40.247Z,7.2732
2023-04-01T00:22:42.194Z,7.2846
2023-04-01T00:23:44.136Z,7.2729
2023-04-01T00:24:46.333Z,7.2563
2023-04-01T00:25:48.262Z,7.2748
2023-04-01T00:26:50.218Z,7.2930
2023-04-01T00:27:52.171Z,7.2704
2023-04-01T00:28:55.012Z,7.2698
2023-04-01T00:29:56.956Z,7.2962
2023-04-01T00:30:58.896Z,7.3092
2023-04-01T00:32:01.098Z,7.2957
2023-04-01T00:33:03.219Z,7.2729
2023-04-01T00:34:05.129Z,7.2969
2023-04-01T00:35:07.056Z,7.3063
2023-04-01T00:36:09.037Z,7.3313
2023-04-01T00:37:10.963Z,7.3195
2023-04-01T00:38:12.886Z,7.3359
2023-04-01T00:39:14.928Z,7.3657
2023-04-01T00:40:16.840Z,7.3511
2023-04-01T00:41:18.816Z,7.3384
2023-04-01T00:42:20.794Z,7.3184
2023-04-01T00:43:22.749Z,7.2962
2023-04-01T00:44:24.726Z,7.2916
2023-04-01T00:45:26.677Z,7.3479
2023-04-01T00:46:28.670Z,7.3631
2023-04-01T00:47:30.720Z,7.3567
2023-04-01T00:48:32.658Z,7.3301
2023-04-01T00:49:34.612Z,7.2925
2023-04-01T00:50:36.588Z,7.3040
2023-04-01T00:51:38.569Z,7.3195
2023-04-01T00:52:40.564Z,7.3263
2023-04-01T00:53:42.530Z,7.3241
2023-04-01T00:54:44.490Z,7.3100
2023-04-01T00:55:46.429Z,7.2935
2023-04-01T00:56:48.460Z,7.3017
2023-04-01T00:57:50.433Z,7.2861
2023-04-01T00:58:52.390Z,7.2910
2023-04-01T00:59:54.398Z,7.2702
2023-04-01T01:00:56.420Z,7.2442
2023-04-01T01:01:58.395Z,7.2448
2023-04-01T01:03:00.404Z,7.2388
2023-04-01T01:04:02.361Z,7.2180
2023-04-01T01:05:04.297Z,7.1953
2023-04-01T01:06:06.290Z,7.1514
2023-04-01T01:07:08.234Z,7.1535
2023-04-01T01:08:10.204Z,7.1398
2023-04-01T01:09:12.251Z,7.1029
2023-04-01T01:10:14.207Z,7.0937
2023-04-01T01:11:16.339Z,7.0563
2023-04-01T01:12:18.789Z,7.0389
2023-04-01T01:13:20.721Z,7.0401
2023-04-01T01:14:22.657Z,6.9992
2023-04-01T01:15:24.601Z,6.9734
2023-04-01T01:16:26.652Z,6.9450
2023-04-01T01:17:28.590Z,6.9333
2023-04-01T01:18:30.567Z,6.9536
2023-04-01T01:19:32.548Z,6.9615
2023-04-01T01:20:34.488Z,6.9529
2023-04-01T01:21:36.465Z,6.9240
2023-04-01T01:22:38.417Z,6.8989
2023-04-01T01:23:40.409Z,6.8964
2023-04-01T01:24:42.330Z,6.8937
2023-04-01T01:25:44.304Z,6.8882
2023-04-01T01:26:46.235Z,6.8557
2023-04-01T01:27:48.190Z,6.8329
2023-04-01T01:28:50.148Z,6.8756
2023-04-01T01:29:52.080Z,6.8609
2023-04-01T01:30:54.079Z,6.8099
2023-04-01T01:31:56.046Z,6.8057
2023-04-01T01:32:57.965Z,6.8237
2023-04-01T01:34:00.118Z,6.8130
2023-04-01T01:35:02.074Z,6.7930
2023-04-01T01:36:04.000Z,6.8704
2023-04-01T01:37:05.922Z,6.9226
2023-04-01T01:38:07.893Z,6.9140
2023-04-01T01:39:09.838Z,6.9547
2023-04-01T01:40:11.802Z,6.9739
2023-04-01T01:41:13.720Z,6.9645
2023-04-01T01:42:15.658Z,6.9931
2023-04-01T01:43:17.630Z,6.9667
2023-04-01T01:44:19.567Z,6.9606
2023-04-01T01:45:21.502Z,6.9511
2023-04-01T01:46:23.480Z,6.9624
2023-04-01T01:47:25.476Z,6.9622
2023-04-01T01:48:27.400Z,6.9962
2023-04-01T01:49:29.500Z,7.0297
2023-04-01T01:50:31.434Z,7.0861
2023-04-01T01:51:33.398Z,7.1474
2023-04-01T01:52:35.375Z,7.1081
2023-04-01T01:53:37.351Z,7.0830
2023-04-01T01:54:39.295Z,7.0374
2023-04-01T01:55:41.273Z,7.0437
2023-04-01T01:56:43.291Z,7.0609
2023-04-01T01:57:45.258Z,7.0687
2023-04-01T01:58:47.237Z,7.0641
2023-04-01T01:59:49.237Z,7.0509
2023-04-01T02:00:51.200Z,7.0627
2023-04-01T02:01:53.196Z,7.0477
2023-04-01T02:02:55.201Z,7.0008
2023-04-01T02:03:57.158Z,7.0383
2023-04-01T02:04:59.182Z,7.0130
2023-04-01T02:05:59.739Z,7.0096
2023-04-01T02:07:01.674Z,7.0552
2023-04-01T02:08:03.629Z,7.0814
2023-04-01T02:09:05.817Z,7.0465
2023-04-01T02:10:07.811Z,7.0554
2023-04-01T02:11:21.938Z,7.0354
2023-04-01T02:12:23.938Z,7.0842
2023-04-01T02:13:25.904Z,7.1233
2023-04-01T02:14:28.011Z,7.1656
2023-04-01T02:15:30.166Z,7.1305
2023-04-01T02:16:32.281Z,7.1217
2023-04-01T02:17:34.333Z,7.0852
2023-04-01T02:18:36.370Z,7.1124
2023-04-01T02:19:38.399Z,7.1340
2023-04-01T02:20:40.426Z,7.1141
2023-04-01T02:21:42.431Z,7.1060
2023-04-01T02:22:44.447Z,7.0868
2023-04-01T02:23:46.587Z,7.0665
2023-04-01T02:24:48.618Z,7.0115
2023-04-01T02:25:50.821Z,7.0453
2023-04-01T02:26:52.952Z,7.0337
2023-04-01T02:27:55.008Z,7.0098
2023-04-01T02:28:57.054Z,7.0582
2023-04-01T02:29:59.155Z,7.1671
2023-04-01T02:31:01.315Z,7.1116
2023-04-01T02:32:04.022Z,7.0634
2023-04-01T02:33:06.197Z,7.0667
2023-04-01T02:34:08.254Z,7.1251
2023-04-01T02:35:10.283Z,7.1779
2023-04-01T02:36:12.497Z,7.1999
2023-04-01T02:39:37.780Z,7.2463
2023-04-01T02:39:37.780Z,7.1836
2023-04-01T02:40:39.762Z,7.1787
2023-04-01T02:41:41.809Z,7.1227
2023-04-01T02:42:43.808Z,7.0655
2023-04-01T02:43:45.781Z,7.0429
2023-04-01T02:44:47.766Z,7.0063
2023-04-01T02:45:49.738Z,6.9410
2023-04-01T02:46:51.906Z,6.9386
2023-04-01T02:47:53.936Z,6.9044
2023-04-01T02:48:55.978Z,6.8519
2023-04-01T02:49:57.947Z,6.7934
2023-04-01T02:51:00.012Z,6.7798
2023-04-01T02:52:02.009Z,6.7830
2023-04-01T02:53:03.988Z,6.8134
2023-04-01T02:54:05.979Z,6.7566
2023-04-01T02:55:07.995Z,6.7743
2023-04-01T02:56:09.943Z,6.7903
2023-04-01T02:57:11.982Z,6.7738
2023-04-01T02:58:13.937Z,6.8010
2023-04-01T02:59:15.929Z,6.7272
2023-04-01T03:00:17.898Z,6.8140
2023-04-01T03:01:19.879Z,6.8487
2023-04-01T03:02:21.888Z,6.9161
2023-04-01T03:03:23.883Z,6.9435
2023-04-01T03:04:25.878Z,6.8972
2023-04-01T03:05:27.827Z,6.9021
2023-04-01T03:06:30.188Z,6.9171
2023-04-01T03:07:32.200Z,6.8827
2023-04-01T03:08:34.122Z,6.9775
2023-04-01T03:09:36.225Z,6.9710
2023-04-01T03:10:38.184Z,7.0050
2023-04-01T03:11:40.127Z,7.0087
2023-04-01T03:12:42.143Z,7.0337
2023-04-01T03:13:42.558Z,7.0200
2023-04-01T03:14:44.508Z,7.0107
2023-04-01T03:15:46.717Z,6.9685
2023-04-01T03:16:48.681Z,6.9240
2023-04-01T03:17:50.667Z,6.9005
2023-04-01T03:18:52.688Z,6.8737
2023-04-01T03:19:54.650Z,6.8587
2023-04-01T03:20:56.607Z,6.8840
2023-04-01T03:21:58.568Z,6.9060
2023-04-01T03:23:00.540Z,6.9401
2023-04-01T03:24:02.731Z,6.8938
2023-04-01T03:25:04.707Z,6.8486
2023-04-01T03:26:06.671Z,6.8306
2023-04-01T03:27:08.620Z,6.8760
2023-04-01T03:28:10.633Z,6.8906
2023-04-01T03:29:12.632Z,6.8906
2023-04-01T03:30:14.636Z,6.9383
2023-04-01T03:31:16.641Z,6.9459
2023-04-01T03:32:18.653Z,6.8602
2023-04-01T03:33:20.734Z,6.8097
2023-04-01T03:34:22.733Z,6.8131
2023-04-01T03:35:24.827Z,6.8867
2023-04-01T03:36:26.876Z,6.8961
2023-04-01T03:37:28.854Z,6.9109
2023-04-01T03:38:30.954Z,6.8921
2023-04-01T03:39:32.969Z,6.8271
2023-04-01T03:40:35.071Z,6.7891
2023-04-01T03:41:37.072Z,6.8145
2023-04-01T03:42:39.080Z,6.8624
2023-04-01T03:43:41.129Z,6.8424
2023-04-01T03:44:43.072Z,6.7940
2023-04-01T03:45:45.133Z,6.8158
2023-04-01T03:46:47.164Z,6.8944
2023-04-01T03:47:49.159Z,6.8662
2023-04-01T03:48:49.243Z,6.8535
2023-04-01T03:49:51.224Z,6.8802
2023-04-01T03:50:53.459Z,6.9137
2023-04-01T03:51:55.410Z,6.8783
2023-04-01T03:52:57.414Z,6.9380
2023-04-01T03:53:59.413Z,6.9858
2023-04-01T03:55:01.498Z,6.9870
2023-04-01T03:56:03.677Z,7.0321
2023-04-01T03:57:05.756Z,6.9732
2023-04-01T03:58:07.760Z,6.9754
2023-04-01T03:59:09.736Z,7.0137
2023-04-01T04:00:11.714Z,7.0149
2023-04-01T04:01:13.691Z,6.9971
2023-04-01T04:02:15.667Z,7.0081
2023-04-01T04:03:17.762Z,6.9906
2023-04-01T04:04:19.923Z,6.9337
2023-04-01T04:05:21.990Z,6.8289
2023-04-01T04:06:23.950Z,6.8071
2023-04-01T04:07:25.895Z,6.8008
2023-04-01T04:08:27.881Z,6.8409
2023-04-01T04:09:29.898Z,6.9604
2023-04-01T04:10:31.901Z,7.0063
2023-04-01T04:11:33.948Z,6.9646
2023-04-01T04:12:35.922Z,6.9803
2023-04-01T04:13:36.951Z,6.9896
2023-04-01T04:14:38.949Z,6.9956
2023-04-01T04:15:41.281Z,7.0150
2023-04-01T04:16:43.207Z,6.9906
2023-04-01T04:17:45.228Z,6.9818
2023-04-01T04:18:47.160Z,6.9512
2023-04-01T04:19:49.162Z,6.9763
2023-04-01T04:20:51.127Z,7.0107
2023-04-01T04:21:53.168Z,6.9956
2023-04-01T04:22:55.091Z,6.9834
2023-04-01T04:23:57.128Z,7.0631
2023-04-01T04:24:59.122Z,7.0671
2023-04-01T04:26:01.068Z,7.0452
2023-04-01T04:27:03.128Z,7.0371
2023-04-01T04:28:05.083Z,7.0800
2023-04-01T04:29:07.055Z,7.1131
2023-04-01T04:30:09.041Z,7.0616
2023-04-01T04:31:10.987Z,7.0762
2023-04-01T04:32:12.921Z,7.0616
2023-04-01T04:33:14.932Z,7.0276
2023-04-01T04:34:16.927Z,7.0225
2023-04-01T04:35:18.936Z,6.8842
2023-04-01T04:36:20.995Z,6.6421
2023-04-01T04:37:22.977Z,6.5716
2023-04-01T04:38:25.050Z,6.5727
2023-04-01T04:39:27.058Z,6.5517
2023-04-01T04:40:29.099Z,6.5541
2023-04-01T04:41:31.145Z,6.5698
2023-04-01T04:42:33.220Z,6.6237
2023-04-01T04:43:35.254Z,6.5775
2023-04-01T04:44:37.232Z,6.5103
2023-04-01T04:45:39.417Z,6.5089
2023-04-01T04:46:41.451Z,6.5286
2023-04-01T04:47:43.398Z,6.4728
2023-04-01T04:48:45.482Z,6.4290
2023-04-01T04:49:47.485Z,6.4405
2023-04-01T04:50:49.545Z,6.4544
2023-04-01T04:51:51.518Z,6.4442
2023-04-01T04:52:53.491Z,6.4032
2023-04-01T04:53:55.520Z,6.3837
2023-04-01T04:54:57.480Z,6.3581
2023-04-01T04:55:59.486Z,6.3586
2023-04-01T04:57:01.468Z,6.3442
2023-04-01T04:58:03.447Z,6.3362
2023-04-01T04:59:05.399Z,6.2599
2023-04-01T05:00:07.359Z,6.2200
2023-04-01T05:01:09.715Z,6.1749
2023-04-01T05:02:11.783Z,6.1427
2023-04-01T05:03:14.004Z,6.1033
2023-04-01T05:04:16.033Z,6.0740
2023-04-01T05:05:18.006Z,6.0770
2023-04-01T05:06:22.208Z,6.1635
2023-04-01T05:07:21.996Z,6.1409
2023-04-01T05:08:24.238Z,6.1040
2023-04-01T05:09:26.205Z,6.0942
2023-04-01T05:10:28.181Z,6.0819
2023-04-01T05:11:30.163Z,6.0809
2023-04-01T05:12:32.089Z,6.0970
2023-04-01T05:13:34.055Z,6.0763
2023-04-01T05:14:36.036Z,6.0582
2023-04-01T05:16:37.332Z,6.0543
2023-04-01T05:16:37.332Z,5.9986
2023-04-01T05:17:39.358Z,5.9779
2023-04-01T05:18:41.291Z,5.9479
2023-04-01T05:19:43.251Z,5.9663
2023-04-01T05:20:45.442Z,5.9399
2023-04-01T05:21:47.416Z,5.9527
2023-04-01T05:22:49.356Z,5.9693
2023-04-01T05:23:51.484Z,5.9592
2023-04-01T05:24:53.434Z,6.0269
2023-04-01T05:25:55.402Z,6.0386
2023-04-01T05:26:57.497Z,6.0230
2023-04-01T05:27:59.447Z,6.0306
2023-04-01T05:29:01.416Z,6.0516
2023-04-01T05:32:16.875Z,6.0407
2023-04-01T05:32:16.875Z,6.1015
2023-04-01T05:33:19.079Z,5.9960
2023-04-01T05:34:21.109Z,5.9668
2023-04-01T05:35:23.103Z,6.0257
2023-04-01T05:36:25.092Z,5.9709
2023-04-01T05:37:27.866Z,5.9436
2023-04-01T05:38:29.827Z,5.9683
2023-04-01T05:39:31.783Z,5.9772
2023-04-01T05:40:33.765Z,5.9696
2023-04-01T05:41:35.722Z,5.9858
2023-04-01T05:42:38.478Z,5.9945
2023-04-01T05:43:40.502Z,5.9871
2023-04-01T05:44:42.466Z,5.9876
2023-04-01T05:45:44.437Z,6.0312
2023-04-01T05:46:46.484Z,6.0589
2023-04-01T05:47:48.511Z,6.0749
2023-04-01T05:48:50.528Z,6.0910
2023-04-01T05:49:52.497Z,6.0901
2023-04-01T05:50:54.550Z,6.1530
2023-04-01T05:51:56.537Z,6.2295
2023-04-01T05:52:58.555Z,6.2535
2023-04-01T05:54:00.536Z,6.2282
2023-04-01T05:55:02.522Z,6.2533
2023-04-01T05:56:04.562Z,6.2495
2023-04-01T05:57:06.578Z,6.2083
2023-04-01T05:58:08.604Z,6.1955
2023-04-01T05:59:10.684Z,6.2182
2023-04-01T06:00:12.667Z,6.2721
2023-04-01T06:01:16.450Z,6.2828
2023-04-01T06:02:15.244Z,6.2735
2023-04-01T06:03:17.505Z,6.2490
2023-04-01T06:04:19.623Z,6.2185
2023-04-01T06:05:21.671Z,6.2179
2023-04-01T06:06:23.686Z,6.1906
2023-04-01T06:19:20.136Z,6.2516
2023-04-01T06:19:20.136Z,6.1969
2023-04-01T06:20:09.034Z,6.6964
2023-04-01T06:21:11.104Z,6.6449
2023-04-01T06:22:13.102Z,6.5640
2023-04-01T06:23:15.172Z,6.5802
2023-04-01T06:24:17.492Z,6.6229
2023-04-01T06:25:19.880Z,6.6443
2023-04-01T06:26:21.861Z,6.6464
2023-04-01T06:27:24.045Z,6.6557
2023-04-01T06:28:26.158Z,6.6897
2023-04-01T06:29:28.197Z,6.7062
2023-04-01T06:30:30.223Z,6.6897
2023-04-01T06:31:32.308Z,6.6655
2023-04-01T06:32:34.430Z,6.6672
2023-04-01T06:33:36.449Z,6.7398
2023-04-01T06:34:38.604Z,6.8259
2023-04-01T06:35:40.722Z,6.8861
2023-04-01T06:36:42.799Z,7.0977
2023-04-01T06:37:44.828Z,7.1555
2023-04-01T06:38:46.830Z,7.2497
2023-04-01T06:39:48.857Z,7.4779
2023-04-01T06:40:51.158Z,7.3077
2023-04-01T06:41:53.101Z,7.4985
2023-04-01T06:42:55.113Z,7.4807
2023-04-01T06:43:57.319Z,7.2825
2023-04-01T06:44:59.264Z,7.1342
2023-04-01T06:46:01.404Z,7.0879
2023-04-01T06:47:03.347Z,7.1100
2023-04-01T06:48:03.623Z,7.0554
2023-04-01T06:49:05.596Z,7.0843
2023-04-01T06:50:07.793Z,7.1045
2023-04-01T06:51:09.814Z,7.1147
2023-04-01T06:52:37.520Z,7.1885
2023-04-01T06:53:13.660Z,7.2252
2023-04-01T06:54:15.657Z,7.2696
2023-04-01T06:55:17.860Z,7.3039
2023-04-01T06:56:19.914Z,7.3509
2023-04-01T06:57:48.968Z,7.3764
2023-04-01T06:58:23.713Z,7.3753
2023-04-01T06:59:26.019Z,7.4372
2023-04-01T07:00:27.921Z,7.5558
2023-04-01T07:01:30.088Z,7.4733
2023-04-01T07:02:32.109Z,7.4469
2023-04-01T07:03:34.178Z,7.4589
2023-04-01T07:04:36.282Z,7.4355
2023-04-01T07:05:38.404Z,7.3816
2023-04-01T07:06:40.450Z,7.3821
2023-04-01T07:08:37.927Z,7.4046
2023-04-01T07:09:06.232Z,7.3661
2023-04-01T07:10:08.218Z,7.3665
2023-04-01T07:11:10.224Z,7.3594
2023-04-01T07:14:52.196Z,7.3651
2023-04-01T07:14:52.196Z,7.3797
2023-04-01T07:15:22.056Z,7.4533
2023-04-01T07:16:24.682Z,7.4852
2023-04-01T07:17:26.791Z,7.3705
2023-04-01T07:22:03.021Z,7.3478
2023-04-01T07:22:03.021Z,7.0848
2023-04-01T07:22:38.113Z,7.0322
2023-04-01T07:37:00.228Z,6.9502
2023-04-01T07:37:00.228Z,6.8738
2023-04-01T07:38:02.257Z,6.7869
2023-04-01T07:39:04.305Z,6.7535
2023-04-01T12:20:12.469Z,9.0114
2023-04-01T12:20:57.462Z,8.8965
2023-04-01T12:21:59.551Z,8.9668
2023-04-01T12:23:04.048Z,8.9537
2023-04-01T12:31:47.561Z,8.7737
2023-04-01T12:31:47.561Z,8.6790
2023-04-01T12:32:15.733Z,8.1879
2023-04-01T12:34:27.725Z,8.3358
2023-04-01T12:34:27.725Z,8.4967
2023-04-01T12:35:19.786Z,8.7069
2023-04-01T12:36:23.070Z,8.8306
2023-04-01T12:37:25.085Z,8.8988
2023-04-01T12:48:43.791Z,9.0013
2023-04-01T12:48:43.791Z,8.9620
2023-04-01T12:49:45.811Z,9.7903
2023-04-01T12:50:48.234Z,9.8508
2023-04-01T12:51:50.229Z,9.9853
2023-04-01T12:52:52.368Z,10.0795
2023-04-01T12:53:54.404Z,10.0899
2023-04-01T12:54:57.507Z,10.3346
2023-04-01T12:55:57.967Z,10.6203
2023-04-01T12:57:00.007Z,10.4503
2023-04-01T12:58:02.048Z,10.5541
2023-04-01T12:59:02.126Z,10.1154
2023-04-01T13:01:22.260Z,10.5135
2023-04-01T13:02:24.503Z,10.7286
2023-04-01T13:04:08.722Z,10.6732
2023-04-01T13:04:53.747Z,10.0702
2023-04-01T13:05:55.753Z,10.0165
2023-04-01T13:06:57.851Z,10.1485
2023-04-01T13:07:59.980Z,10.3182
2023-04-01T13:09:02.074Z,10.1674
2023-04-01T13:10:04.091Z,9.9226
2023-04-01T13:11:06.177Z,9.9749
2023-04-01T13:12:06.341Z,10.1558
2023-04-01T13:13:08.379Z,10.0874
2023-04-01T13:15:26.196Z,10.1316
2023-04-01T13:16:28.290Z,9.9790
2023-04-01T13:17:30.636Z,9.9702
2023-04-01T13:18:32.758Z,10.0416
2023-04-01T13:19:34.800Z,10.0104
2023-04-01T13:20:36.965Z,10.1549
2023-04-01T13:21:38.971Z,9.9969
2023-04-01T13:22:41.029Z,10.1383
2023-04-01T13:23:43.032Z,10.1596
2023-04-01T13:24:45.091Z,10.1134
2023-04-01T13:25:47.266Z,10.1696
2023-04-01T13:26:49.336Z,10.1487
2023-04-01T13:27:51.424Z,10.2196
2023-04-01T13:28:53.659Z,10.2620
2023-04-01T13:29:55.636Z,10.2070
2023-04-01T13:30:58.455Z,10.1872
2023-04-01T13:32:00.479Z,10.1197
2023-04-01T13:33:02.727Z,10.0873
2023-04-01T13:34:04.791Z,9.9727
2023-04-01T13:35:06.273Z,10.0275
2023-04-01T13:36:08.505Z,9.9882
2023-04-01T13:37:10.580Z,10.0086
2023-04-01T13:38:13.393Z,10.0325
2023-04-01T13:39:15.403Z,9.9098
2023-04-01T13:40:18.290Z,9.9373
2023-04-01T13:41:20.346Z,9.9192
2023-04-01T13:42:22.369Z,10.0275
2023-04-01T13:43:24.391Z,10.0453
2023-04-01T13:44:26.457Z,10.1797
2023-04-01T13:45:28.817Z,10.2225
2023-04-01T13:46:30.811Z,10.2792
2023-04-01T13:47:32.918Z,10.4645
2023-04-01T13:48:34.921Z,10.4270
2023-04-01T13:49:36.907Z,10.4142
2023-04-01T13:50:38.971Z,10.4069
2023-04-01T13:51:41.018Z,10.5086
2023-04-01T13:52:43.031Z,10.3191
2023-04-01T13:53:45.050Z,10.2016
2023-04-01T13:54:47.041Z,10.1904
2023-04-01T13:55:47.557Z,10.1066
2023-04-01T13:56:49.652Z,9.9803
2023-04-01T13:57:51.660Z,9.9537
2023-04-01T13:58:53.675Z,9.9603
2023-04-01T13:59:55.708Z,10.2089
2023-04-01T14:00:57.803Z,10.1984
2023-04-01T14:01:59.841Z,10.0856
2023-04-01T14:03:01.968Z,10.1458
2023-04-01T14:04:04.148Z,10.1258
2023-04-01T14:05:06.182Z,10.0423
2023-04-01T14:06:08.217Z,10.0617
2023-04-01T14:07:10.304Z,10.0212
2023-04-01T14:08:12.285Z,10.0430
2023-04-01T14:09:14.423Z,9.9442
2023-04-01T14:10:16.448Z,9.8914
2023-04-01T14:11:18.439Z,9.8410
2023-04-01T14:12:20.477Z,9.9098
2023-04-01T14:13:22.673Z,9.9230
2023-04-01T14:14:24.688Z,10.0804
2023-04-01T14:15:26.669Z,10.0877
2023-04-01T14:16:28.781Z,10.1002
2023-04-01T14:17:31.073Z,10.0137
2023-04-01T14:18:33.150Z,10.0352
2023-04-01T14:19:37.016Z,10.0324
2023-04-01T14:20:35.670Z,10.0443
2023-04-01T14:25:23.730Z,9.9073
2023-04-01T14:25:23.730Z,9.9207
2023-04-01T14:26:25.785Z,9.2670
2023-04-01T14:36:10.614Z,8.9620
2023-04-01T14:36:10.614Z,9.1522
2023-04-01T14:37:12.608Z,6.8649
2023-04-01T14:38:14.697Z,6.5997
2023-04-01T14:39:15.261Z,6.5659
2023-04-01T14:40:17.355Z,6.8017
2023-04-01T16:26:17.112Z,6.9801
2023-04-01T16:26:17.112Z,6.9860
2023-04-01T16:26:58.645Z,9.2115
2023-04-01T16:28:00.669Z,9.1434
2023-04-01T16:29:02.662Z,9.1596
2023-04-01T16:30:04.738Z,9.2777
2023-04-01T16:31:06.711Z,9.3192
2023-04-01T16:32:08.870Z,9.3115
2023-04-01T16:33:10.915Z,9.1230
2023-04-01T16:34:12.949Z,9.0136
2023-04-01T17:57:50.377Z,8.9135
2023-04-01T17:57:50.377Z,8.7484
2023-04-01T17:58:35.675Z,7.6137
2023-04-01T17:59:38.349Z,7.5688
2023-04-01T18:00:53.017Z,7.5310
2023-04-01T18:01:41.375Z,7.5144
2023-04-01T18:02:43.413Z,7.5346
2023-04-01T18:03:45.855Z,7.5331
2023-04-01T18:04:48.200Z,7.5380
2023-04-01T18:05:50.225Z,7.5353
2023-04-01T18:06:52.222Z,7.5129
2023-04-01T18:07:54.347Z,7.4941
2023-04-01T18:08:56.335Z,7.4761
2023-04-01T18:27:58.756Z,7.4723
2023-04-01T18:27:58.756Z,7.4533
2023-04-01T18:28:47.293Z,7.2494
2023-04-01T18:29:50.576Z,7.2815
2023-04-01T18:30:52.615Z,7.3077
2023-04-01T18:31:54.902Z,7.2846
2023-04-01T18:32:55.290Z,7.3064
2023-04-01T18:33:57.295Z,7.3269
2023-04-01T18:34:59.547Z,7.2542
2023-04-01T18:36:01.619Z,7.2769
2023-04-01T18:37:03.870Z,7.2478
2023-04-01T18:38:05.844Z,7.2448
2023-04-01T18:39:07.895Z,7.2241
2023-04-01T18:40:10.036Z,7.1975
2023-04-01T18:41:12.128Z,7.2107
2023-04-01T18:42:14.120Z,7.2333
2023-04-01T18:43:16.235Z,7.1978
2023-04-01T18:44:18.327Z,7.2040
2023-04-01T18:45:20.328Z,7.2159
2023-04-01T18:46:22.460Z,7.2263
2023-04-01T18:47:24.800Z,7.2018
2023-04-01T18:48:26.905Z,7.1698
2023-04-01T18:49:29.154Z,7.2626
2023-04-01T18:50:31.166Z,7.2837
2023-04-01T18:51:33.177Z,7.2471
2023-04-01T18:52:35.155Z,7.2003
2023-04-01T18:53:37.272Z,7.2020
2023-04-01T18:54:39.259Z,7.2401
2023-04-01T18:55:41.251Z,7.1477
2023-04-01T18:56:43.253Z,7.1805
2023-04-01T18:57:45.235Z,7.2146
2023-04-01T18:58:47.221Z,7.2132
2023-04-01T18:59:49.508Z,7.2125
2023-04-01T19:00:51.511Z,7.1588
2023-04-01T19:06:27.371Z,7.1711
2023-04-01T19:06:27.371Z,7.1408
2023-04-01T19:07:19.315Z,7.2024
2023-04-01T19:08:21.398Z,7.1653
2023-04-01T19:09:23.529Z,7.1444
2023-04-01T19:10:25.521Z,7.1953
2023-04-01T19:11:27.604Z,7.1644
2023-04-01T19:12:29.654Z,7.2180
2023-04-01T19:13:31.633Z,7.1926
2023-04-01T19:14:33.714Z,7.2641
2023-04-01T19:15:35.826Z,7.2333
2023-04-01T19:16:37.893Z,7.2098
2023-04-01T19:17:39.894Z,7.2000
2023-04-01T19:18:41.891Z,7.1822
2023-04-01T19:19:43.901Z,7.2043
2023-04-01T19:20:45.910Z,7.2606
2023-04-01T19:21:48.052Z,7.3024
2023-04-01T19:22:50.025Z,7.2548
2023-04-01T19:23:52.042Z,7.2026
2023-04-01T19:24:54.087Z,7.1843
2023-04-01T19:25:56.059Z,7.1594
2023-04-01T19:26:58.066Z,7.1208
2023-04-01T19:28:04.088Z,7.1542
2023-04-01T19:29:06.353Z,7.1361
2023-04-01T19:30:08.371Z,7.1097
2023-04-01T19:31:10.498Z,7.1699
2023-04-01T19:32:12.788Z,7.1889
2023-04-01T19:33:14.804Z,7.1874
2023-04-01T19:34:16.825Z,7.2063
2023-04-01T19:35:18.880Z,7.2347
2023-04-01T19:36:20.912Z,7.2199
2023-04-01T19:37:23.201Z,7.2315
2023-04-01T19:38:25.197Z,7.2472
2023-04-01T19:39:27.208Z,7.2610
2023-04-01T19:40:29.217Z,7.2340
2023-04-01T19:41:32.421Z,7.2106
2023-04-01T19:42:34.447Z,7.2395
2023-04-01T19:43:36.533Z,7.2364
2023-04-01T19:44:38.525Z,7.2333
2023-04-01T19:45:40.532Z,7.2577
2023-04-01T19:46:42.791Z,7.2284
2023-04-01T19:47:44.948Z,7.2563
2023-04-01T19:48:46.976Z,7.1871
2023-04-01T19:49:47.240Z,7.1933
2023-04-01T19:50:49.246Z,7.2033
2023-04-01T19:51:51.349Z,7.1849
2023-04-01T19:52:53.368Z,7.1693
2023-04-01T19:53:55.374Z,7.1334
2023-04-01T19:54:57.384Z,7.0805
2023-04-01T19:55:59.394Z,7.0619
2023-04-01T19:57:01.436Z,7.0954
2023-04-01T19:58:05.375Z,7.1578
2023-04-01T19:59:05.055Z,7.1132
2023-04-01T20:00:07.086Z,7.1257
2023-04-01T20:01:09.061Z,7.1162
2023-04-01T20:02:11.080Z,7.1850
2023-04-01T20:03:13.161Z,7.1351
2023-04-01T20:04:15.192Z,7.0938
2023-04-01T20:05:17.275Z,7.0900
2023-04-01T20:06:19.229Z,7.1484
2023-04-01T20:07:21.248Z,7.1094
2023-04-01T20:08:23.235Z,7.1017
2023-04-01T20:09:25.230Z,7.1052
2023-04-01T20:10:47.290Z,7.0552
2023-04-01T20:11:38.992Z,7.0611
2023-04-01T20:12:41.098Z,7.0548
2023-04-01T20:13:43.195Z,6.9953
2023-04-01T20:14:45.719Z,6.9867
2023-04-01T20:15:47.699Z,6.9702
2023-04-01T20:16:49.702Z,6.9812
2023-04-01T20:17:51.835Z,7.0230
2023-04-01T20:18:53.941Z,7.0281
2023-04-01T20:19:55.929Z,7.0308
2023-04-01T20:20:57.924Z,7.0836
2023-04-01T20:22:00.034Z,7.0799
2023-04-01T20:23:18.415Z,7.0603
2023-04-01T20:24:12.440Z,6.9566
2023-04-01T20:25:07.256Z,6.9667
2023-04-01T20:26:05.856Z,6.9370
2023-04-01T20:27:08.441Z,6.9547
2023-04-01T20:28:10.422Z,7.0018
2023-04-01T20:29:12.452Z,6.9458
2023-04-01T20:32:22.263Z,6.9075
2023-04-01T20:32:22.263Z,6.9005
2023-04-01T20:33:07.449Z,6.9309
2023-04-01T20:34:09.432Z,6.8922
2023-04-01T20:35:11.443Z,6.8805
2023-04-01T20:36:13.723Z,6.9042
2023-04-01T20:37:15.710Z,6.9265
2023-04-01T20:38:17.671Z,6.8768
2023-04-01T20:39:19.797Z,6.8763
2023-04-01T20:40:21.997Z,6.9045
2023-04-01T20:41:24.008Z,6.8659
2023-04-01T20:42:25.987Z,6.8636
2023-04-01T20:43:28.003Z,6.8570
2023-04-01T20:44:29.965Z,6.8662
2023-04-01T20:45:32.342Z,6.8562
2023-04-01T20:46:34.482Z,6.8303
2023-04-01T20:47:36.948Z,6.7921
2023-04-01T20:48:38.911Z,6.7941
2023-04-01T20:49:40.914Z,6.8026
2023-04-01T20:50:43.085Z,6.7750
2023-04-01T20:51:45.074Z,6.7904
2023-04-01T20:53:50.370Z,6.7438
2023-04-01T20:53:50.370Z,6.7987
2023-04-01T20:55:06.051Z,6.7990
2023-04-01T20:56:08.172Z,6.7680
2023-04-01T20:57:10.396Z,6.8636
2023-04-01T20:58:12.494Z,6.7906
2023-04-01T20:59:14.475Z,6.7560
2023-04-01T21:00:16.481Z,6.7596
2023-04-01T21:01:18.529Z,6.7655
2023-04-01T21:02:20.546Z,6.8026
2023-04-01T21:03:22.536Z,6.8351
2023-04-01T21:04:24.570Z,6.7955
2023-04-01T21:05:26.736Z,6.7677
2023-04-01T21:06:28.745Z,6.7587
2023-04-01T21:07:30.749Z,6.7568
2023-04-01T21:12:23.600Z,6.6762
2023-04-01T21:12:23.600Z,6.7675
2023-04-01T21:13:12.045Z,6.6405
2023-04-01T21:14:14.008Z,6.6617
2023-04-01T21:15:16.229Z,6.6321
2023-04-01T21:16:18.442Z,6.5732
2023-04-01T21:17:20.415Z,6.5832
2023-04-01T21:18:22.519Z,6.6182
2023-04-01T21:19:24.713Z,6.6341
2023-04-01T21:20:26.715Z,6.6446
2023-04-01T21:21:28.931Z,6.6649
2023-04-01T21:22:30.899Z,6.7001
2023-04-01T21:23:32.930Z,6.6563
2023-04-01T21:24:34.901Z,6.6661
2023-04-01T21:25:37.082Z,6.6930
2023-04-01T21:26:39.312Z,6.6916
2023-04-01T21:27:41.254Z,6.6677
2023-04-01T21:28:43.260Z,6.7246
2023-04-01T21:29:45.244Z,6.7157
2023-04-01T21:30:47.225Z,6.7281
2023-04-01T21:31:49.228Z,6.7029
2023-04-01T21:32:51.396Z,6.6873
2023-04-01T21:33:53.378Z,6.6382
2023-04-01T21:34:55.386Z,6.6476
2023-04-01T21:35:57.416Z,6.7410
2023-04-01T21:36:59.391Z,6.6452
2023-04-01T21:38:22.533Z,6.6126
2023-04-01T21:39:04.026Z,6.6090
2023-04-01T21:40:06.123Z,6.6323
2023-04-01T21:41:08.108Z,6.6998
2023-04-01T21:42:08.289Z,6.6484
2023-04-01T21:43:42.803Z,6.5771
2023-04-01T21:44:10.763Z,6.5761
2023-04-01T21:45:12.983Z,6.5590
2023-04-01T21:46:15.151Z,6.5709
2023-04-01T21:47:17.170Z,6.5580
2023-04-01T21:48:19.446Z,6.5768
2023-04-01T21:49:21.467Z,6.5273
2023-04-01T21:50:23.504Z,6.5106
2023-04-01T21:51:25.542Z,6.4822
2023-04-01T21:52:27.807Z,6.5025
2023-04-01T21:53:29.948Z,6.5224
2023-04-01T21:54:31.986Z,6.5267
2023-04-01T21:55:34.238Z,6.4896
2023-04-01T21:56:36.348Z,6.5123
2023-04-01T21:57:38.439Z,6.6320
2023-04-01T21:58:40.440Z,6.6258